LFPO/ORY METAR and TAF weather

Enter ICAO airport designator
Station Type Date Time Source
LFPO METAR 2021/07/30 23:00 UTC NOAA

LFPO 302300Z 24008KT 9999 SCT041 BKN056 17/11 Q1012 NOSIG


Station Type Date Time Source
LFPO Decoded METAR 2021/07/30 23:00 UTC NOAA

Paris-Orly, France (LFPO) 48-44N 002-24E 96M
Jul 30, 2021 - 07:00 PM EDT / 2021.07.30 2300 UTC
Wind: from the WSW (240 degrees) at 9 MPH (8 KT):0
Visibility: greater than 7 mile(s):0
Sky conditions: mostly cloudy
Temperature: 62 F (17 C)
Dew Point: 51 F (11 C)
Relative Humidity: 67%
Pressure (altimeter): 29.88 in. Hg (1012 hPa)
ob: LFPO 302300Z 24008KT 9999 SCT041 BKN056 17/11 Q1012 NOSIG
cycle: 23

Station Type Date Time Source
LFPO TAF 2021/07/30 18:25 UTC NOAA

TAF LFPO 301700Z 3018/3124 26010KT CAVOK PROB40
TEMPO 3114/3120 4000 -SHRA SCT040TCU

Example: see airport list